createdAt,value
2023-04-23T00:01:27.034Z,59.81
2023-04-23T00:03:58.464Z,60.26
2023-04-23T00:06:27.133Z,61.05
2023-04-23T00:08:55.738Z,61.68
2023-04-23T00:11:24.533Z,62.34
2023-04-23T00:13:53.063Z,62.67
2023-04-23T00:16:22.381Z,62.78
2023-04-23T00:18:50.559Z,62.78
2023-04-23T00:21:18.727Z,63.22
2023-04-23T00:23:47.109Z,63.55
2023-04-23T00:26:15.695Z,63.24
2023-04-23T00:28:44.128Z,63.33
2023-04-23T00:31:13.747Z,63.54
2023-04-23T00:33:42.126Z,63.78
2023-04-23T00:36:10.707Z,64.28
2023-04-23T00:38:39.091Z,64.37
2023-04-23T00:41:07.549Z,64.56
2023-04-23T00:43:38.376Z,64.77
2023-04-23T00:46:06.954Z,65.06
2023-04-23T00:48:36.567Z,65.49
2023-04-23T00:51:08.007Z,65.47
2023-04-23T00:53:38.563Z,65.10
2023-04-23T00:56:07.735Z,65.07
2023-04-23T00:58:36.425Z,64.98
2023-04-23T01:01:05.065Z,65.25
2023-04-23T01:03:34.012Z,64.90
2023-04-23T01:06:03.827Z,65.10
2023-04-23T01:08:32.190Z,65.08
2023-04-23T01:11:01.060Z,65.70
2023-04-23T01:13:30.664Z,66.21
2023-04-23T01:15:59.039Z,66.30
2023-04-23T01:18:27.782Z,65.67
2023-04-23T01:20:56.112Z,65.35
2023-04-23T01:23:24.893Z,65.51
2023-04-23T01:25:54.399Z,66.01
2023-04-23T01:28:23.189Z,66.58
2023-04-23T01:30:52.080Z,66.65
2023-04-23T01:33:20.388Z,66.62
2023-04-23T01:35:49.690Z,66.87
2023-04-23T01:38:18.473Z,67.41
2023-04-23T01:40:47.161Z,67.98
2023-04-23T01:43:16.381Z,68.29
2023-04-23T01:45:44.845Z,67.43
2023-04-23T01:48:13.117Z,67.33
2023-04-23T01:50:41.293Z,67.32
2023-04-23T01:53:09.884Z,67.89
2023-04-23T01:55:39.082Z,68.66
2023-04-23T01:58:07.276Z,68.88
2023-04-23T02:00:35.642Z,68.74
2023-04-23T02:03:05.216Z,68.62
2023-04-23T02:05:35.166Z,68.58
2023-04-23T02:08:03.561Z,68.54
2023-04-23T02:10:32.020Z,68.33
2023-04-23T02:13:01.120Z,68.54
2023-04-23T02:15:29.804Z,68.74
2023-04-23T02:17:58.004Z,68.92
2023-04-23T02:20:26.359Z,68.76
2023-04-23T02:22:54.767Z,68.93
2023-04-23T02:25:23.117Z,69.12
2023-04-23T02:27:51.501Z,68.94
2023-04-23T02:30:19.877Z,69.46
2023-04-23T02:32:48.166Z,70.10
2023-04-23T02:35:16.497Z,70.04
2023-04-23T02:37:44.910Z,69.29
2023-04-23T02:40:13.278Z,69.00
2023-04-23T02:42:43.832Z,68.79
2023-04-23T02:45:12.823Z,69.05
2023-04-23T02:47:41.364Z,69.30
2023-04-23T02:50:09.774Z,69.47
2023-04-23T02:52:38.460Z,69.85
2023-04-23T02:55:07.759Z,70.18
2023-04-23T02:57:36.998Z,70.11
2023-04-23T03:00:08.886Z,70.45
2023-04-23T03:02:42.082Z,70.08
2023-04-23T03:05:10.697Z,70.12
2023-04-23T03:07:39.899Z,70.23
2023-04-23T03:10:08.863Z,70.63
2023-04-23T03:12:37.685Z,70.84
2023-04-23T03:15:07.099Z,71.48
2023-04-23T03:17:40.734Z,71.26
2023-04-23T03:20:11.725Z,71.15
2023-04-23T03:22:43.278Z,71.17
2023-04-23T03:25:12.428Z,71.15
2023-04-23T03:27:40.988Z,70.84
2023-04-23T03:30:10.074Z,70.58
2023-04-23T03:32:39.038Z,70.18
2023-04-23T03:35:09.805Z,69.18
2023-04-23T03:37:39.697Z,68.21
2023-04-23T03:40:09.510Z,67.71
2023-04-23T03:42:40.370Z,67.13
2023-04-23T03:45:10.044Z,66.40
2023-04-23T03:47:40.120Z,65.49
2023-04-23T03:50:09.817Z,63.85
2023-04-23T03:52:39.090Z,63.48
2023-04-23T03:55:08.395Z,62.72
2023-04-23T03:57:42.916Z,62.00
2023-04-23T04:00:23.067Z,61.38
2023-04-23T04:02:51.771Z,61.50
2023-04-23T04:05:20.573Z,61.80
2023-04-23T04:07:49.028Z,62.32
2023-04-23T04:10:18.839Z,61.67
2023-04-23T04:12:48.243Z,60.97
2023-04-23T04:15:17.785Z,61.04
2023-04-23T04:17:46.277Z,60.60
2023-04-23T04:20:14.528Z,60.44
2023-04-23T04:22:43.100Z,59.33
2023-04-23T04:25:12.601Z,59.05
2023-04-23T04:27:41.736Z,58.85
2023-04-23T04:30:11.083Z,58.48
2023-04-23T04:32:40.785Z,58.16
2023-04-23T04:35:09.589Z,57.86
2023-04-23T04:37:37.748Z,58.05
2023-04-23T04:40:08.074Z,58.10
2023-04-23T04:42:36.458Z,58.23
2023-04-23T04:45:06.298Z,58.09
2023-04-23T04:47:35.003Z,58.57
2023-04-23T04:50:04.305Z,58.59
2023-04-23T04:52:33.766Z,58.65
2023-04-23T04:55:02.299Z,58.67
2023-04-23T04:57:30.834Z,58.92
2023-04-23T04:59:59.117Z,59.12
2023-04-23T05:02:27.526Z,59.14
2023-04-23T05:04:55.878Z,59.26
2023-04-23T05:07:24.249Z,59.35
2023-04-23T05:09:52.658Z,58.92
2023-04-23T05:12:21.110Z,58.74
2023-04-23T05:14:49.387Z,58.75
2023-04-23T05:17:17.663Z,59.12
2023-04-23T05:19:45.840Z,59.07
2023-04-23T05:22:14.224Z,59.18
2023-04-23T05:24:42.820Z,59.52
2023-04-23T05:27:11.491Z,59.82
2023-04-23T05:29:39.867Z,58.91
2023-04-23T05:32:10.173Z,58.42
2023-04-23T05:34:40.014Z,57.79
2023-04-23T05:37:08.412Z,56.69
2023-04-23T05:39:36.881Z,56.75
2023-04-23T05:42:05.363Z,56.70
2023-04-23T05:44:33.619Z,55.37
2023-04-23T05:47:02.056Z,55.23
2023-04-23T05:49:31.315Z,54.41
2023-04-23T05:51:59.594Z,54.01
2023-04-23T05:54:27.765Z,54.06
2023-04-23T05:56:56.142Z,53.86
2023-04-23T05:59:24.319Z,54.08
2023-04-23T06:01:53.521Z,53.80
2023-04-23T06:04:22.057Z,53.37
2023-04-23T06:06:50.792Z,53.37
2023-04-23T06:09:19.267Z,53.61
2023-04-23T06:11:50.948Z,53.71
2023-04-23T06:14:19.408Z,53.87
2023-04-23T06:16:47.685Z,53.37
2023-04-23T06:19:16.066Z,53.30
2023-04-23T06:21:44.745Z,53.44
2023-04-23T06:24:15.480Z,53.85
2023-04-23T06:26:43.858Z,53.76
2023-04-23T06:29:13.876Z,54.20
2023-04-23T06:32:05.313Z,54.77
2023-04-23T06:34:33.842Z,55.40
2023-04-23T06:37:04.983Z,55.95
2023-04-23T06:39:33.362Z,56.29
2023-04-23T06:42:01.941Z,56.71
2023-04-23T06:44:47.328Z,56.97
2023-04-23T06:47:17.484Z,57.35
2023-04-23T06:49:46.236Z,57.95
2023-04-23T06:52:14.582Z,57.23
2023-04-23T06:54:43.109Z,56.46
2023-04-23T06:57:11.981Z,56.12
2023-04-23T06:59:40.463Z,55.76
2023-04-23T07:02:09.194Z,55.73
2023-04-23T07:04:37.742Z,55.11
2023-04-23T07:07:07.041Z,54.61
2023-04-23T07:09:35.540Z,54.53
2023-04-23T07:12:04.418Z,53.90
2023-04-23T07:14:35.153Z,54.12
2023-04-23T07:17:03.353Z,54.05
2023-04-23T07:19:32.428Z,53.76
2023-04-23T07:22:00.714Z,52.78
2023-04-23T07:24:29.197Z,51.74
2023-04-23T07:26:59.726Z,51.22
2023-04-23T07:29:28.056Z,50.91
2023-04-23T07:31:57.017Z,50.41
2023-04-23T07:34:25.431Z,49.59
2023-04-23T07:36:53.826Z,48.39
2023-04-23T07:39:22.699Z,46.98
2023-04-23T07:41:50.877Z,46.14
2023-04-23T07:44:19.465Z,46.05
2023-04-23T07:46:47.730Z,45.98
2023-04-23T07:49:16.609Z,45.81
2023-04-23T07:51:44.899Z,46.85
2023-04-23T07:54:13.264Z,47.97
2023-04-23T07:56:43.215Z,47.79
2023-04-23T07:59:11.899Z,47.87
2023-04-23T08:01:42.198Z,47.31
2023-04-23T08:04:15.663Z,47.57
2023-04-23T08:06:44.174Z,48.22
2023-04-23T08:09:12.400Z,48.94
2023-04-23T08:11:41.854Z,49.64
2023-04-23T08:14:10.167Z,48.93
2023-04-23T08:17:56.184Z,48.98
2023-04-23T08:20:25.626Z,47.42
2023-04-23T08:22:54.222Z,46.57
2023-04-23T08:25:22.623Z,45.14
2023-04-23T08:27:52.819Z,42.82
2023-04-23T08:30:21.300Z,40.35
2023-04-23T08:32:51.112Z,38.72
2023-04-23T08:35:20.087Z,37.17
2023-04-23T08:37:48.385Z,35.92
2023-04-23T08:40:17.370Z,34.14
2023-04-23T08:42:51.080Z,33.81
2023-04-23T08:45:19.421Z,32.56
2023-04-23T08:47:47.854Z,31.53
2023-04-23T08:50:18.053Z,32.50
2023-04-23T08:56:07.635Z,39.34
2023-04-23T08:58:36.131Z,37.41
2023-04-23T09:01:05.095Z,39.02
2023-04-23T09:03:36.248Z,40.88
2023-04-23T09:06:05.213Z,41.90
2023-04-23T09:08:33.390Z,40.99
2023-04-23T09:11:02.224Z,38.49
2023-04-23T09:13:32.235Z,37.59
2023-04-23T09:16:01.120Z,38.19
2023-04-23T09:18:30.020Z,38.28
2023-04-23T09:20:58.293Z,38.05
2023-04-23T09:23:27.078Z,39.81
2023-04-23T09:25:56.903Z,39.34
2023-04-23T09:28:43.498Z,38.37
2023-04-23T09:32:21.886Z,38.08
2023-04-23T09:34:50.601Z,38.44
2023-04-23T09:37:19.390Z,40.51
2023-04-23T09:39:47.715Z,41.74
2023-04-23T09:42:16.041Z,43.04
2023-04-23T09:44:44.306Z,42.32
2023-04-23T09:47:15.248Z,41.82
2023-04-23T09:49:48.270Z,42.49
2023-04-23T09:52:17.144Z,40.39
2023-04-23T09:54:46.842Z,39.44
2023-04-23T09:57:15.458Z,38.33
2023-04-23T09:59:48.806Z,37.96
2023-04-23T10:02:19.269Z,38.70
2023-04-23T10:04:54.578Z,37.34
2023-04-23T10:07:26.801Z,35.34
2023-04-23T10:09:56.311Z,34.77
2023-04-23T10:14:57.762Z,32.05
2023-04-23T10:17:26.300Z,31.24
2023-04-23T10:19:55.337Z,32.16
2023-04-23T10:22:24.320Z,31.99
2023-04-23T10:24:56.435Z,30.93
2023-04-23T10:27:36.940Z,31.47
2023-04-23T10:30:14.693Z,32.13
2023-04-23T10:32:43.599Z,32.35
2023-04-23T10:35:12.064Z,31.54
2023-04-23T10:37:40.495Z,34.06
2023-04-23T10:40:14.448Z,39.93
2023-04-23T10:42:46.102Z,39.80
2023-04-23T10:45:23.510Z,40.02
2023-04-23T10:47:55.563Z,37.34
2023-04-23T10:50:25.144Z,35.43
2023-04-23T10:52:54.735Z,34.95
2023-04-23T10:55:24.514Z,34.43
2023-04-23T10:58:03.274Z,33.96
2023-04-23T11:00:46.097Z,33.89
2023-04-23T11:03:43.373Z,34.09
2023-04-23T11:06:20.426Z,32.05
2023-04-23T11:08:56.934Z,31.71
2023-04-23T11:11:40.285Z,33.67
2023-04-23T11:14:14.510Z,32.80
2023-04-23T11:16:42.660Z,32.28
2023-04-23T11:19:18.283Z,30.82
2023-04-23T11:22:18.685Z,28.53
2023-04-23T11:24:49.527Z,27.49
2023-04-23T11:27:20.384Z,26.18
2023-04-23T11:29:48.641Z,25.56
2023-04-23T11:32:17.552Z,25.32
2023-04-23T11:34:53.002Z,24.59
2023-04-23T11:37:21.365Z,23.98
2023-04-23T11:39:51.785Z,22.63
2023-04-23T11:42:23.466Z,21.42
2023-04-23T11:44:51.725Z,21.24
2023-04-23T11:47:20.197Z,21.58
2023-04-23T11:49:48.475Z,21.27
2023-04-23T11:52:17.583Z,21.31
2023-04-23T11:54:46.063Z,24.07
2023-04-23T11:57:14.853Z,25.07
2023-04-23T11:59:44.116Z,25.26
2023-04-23T12:02:12.866Z,26.74
2023-04-23T12:04:41.600Z,27.52
2023-04-23T12:07:25.726Z,27.49
2023-04-23T12:10:00.295Z,26.19
2023-04-23T12:12:35.656Z,25.88
2023-04-23T12:15:08.793Z,26.04
2023-04-23T12:17:37.239Z,26.32
2023-04-23T12:20:07.376Z,27.66
2023-04-23T12:22:35.898Z,27.43
2023-04-23T12:25:08.073Z,25.88
2023-04-23T12:27:44.129Z,24.84
2023-04-23T12:30:12.836Z,24.64
2023-04-23T12:32:41.521Z,25.38
2023-04-23T12:35:11.358Z,25.79
2023-04-23T12:37:39.693Z,25.92
2023-04-23T12:40:09.390Z,25.97
2023-04-23T12:42:37.992Z,25.99
2023-04-23T12:45:08.068Z,27.33
2023-04-23T12:47:36.402Z,27.38
2023-04-23T12:50:06.313Z,26.74
2023-04-23T12:52:35.606Z,25.37
2023-04-23T12:55:05.299Z,26.29
2023-04-23T12:57:35.947Z,25.17
2023-04-23T13:00:06.042Z,23.97
2023-04-23T13:02:35.002Z,24.84
2023-04-23T13:05:03.340Z,25.55
2023-04-23T13:07:31.921Z,24.61
2023-04-23T13:10:00.408Z,23.89
2023-04-23T13:12:28.582Z,23.24
2023-04-23T13:14:57.033Z,23.42
2023-04-23T13:17:26.782Z,24.37
2023-04-23T13:19:56.094Z,24.48
2023-04-23T13:22:28.638Z,24.20
2023-04-23T13:24:57.640Z,23.15
2023-04-23T13:27:27.368Z,21.83
2023-04-23T13:29:56.251Z,21.71
2023-04-23T13:32:27.467Z,22.29
2023-04-23T13:34:55.857Z,21.86
2023-04-23T13:37:24.707Z,20.53
2023-04-23T13:39:53.146Z,20.18
2023-04-23T13:42:21.414Z,19.67
2023-04-23T13:44:49.997Z,19.93
2023-04-23T13:47:18.488Z,19.76
2023-04-23T13:49:46.655Z,19.21
2023-04-23T13:52:15.036Z,19.67
2023-04-23T13:54:43.516Z,19.91
2023-04-23T13:57:11.999Z,20.40
2023-04-23T13:59:40.607Z,19.06
2023-04-23T14:02:09.193Z,17.85
2023-04-23T14:04:37.893Z,18.07
2023-04-23T14:07:06.342Z,18.70
2023-04-23T14:09:34.920Z,19.29
2023-04-23T14:12:04.269Z,19.07
2023-04-23T14:14:32.748Z,18.65
2023-04-23T14:17:01.641Z,18.52
2023-04-23T14:19:34.702Z,18.80
2023-04-23T14:22:03.727Z,19.53
2023-04-23T14:24:39.186Z,18.34
2023-04-23T14:27:07.377Z,18.03
2023-04-23T14:29:52.553Z,18.12
2023-04-23T14:32:21.195Z,18.03
2023-04-23T14:34:50.950Z,17.87
2023-04-23T14:37:17.887Z,17.60
2023-04-23T14:39:45.277Z,17.14
2023-04-23T14:42:12.638Z,16.25
2023-04-23T14:44:39.538Z,16.91
2023-04-23T14:47:09.262Z,17.14
2023-04-23T14:49:36.893Z,17.37
2023-04-23T14:52:04.068Z,17.12
2023-04-23T14:54:31.112Z,16.93
2023-04-23T14:56:58.056Z,16.90
2023-04-23T14:59:25.308Z,16.66
2023-04-23T15:01:52.736Z,16.41
2023-04-23T15:04:20.167Z,16.62
2023-04-23T15:06:47.386Z,16.86
2023-04-23T15:09:14.529Z,17.71
2023-04-23T15:11:42.396Z,17.71
2023-04-23T15:14:16.820Z,17.60
2023-04-23T15:16:48.167Z,17.56
2023-04-23T15:19:18.390Z,17.13
2023-04-23T15:21:46.479Z,17.12
2023-04-23T15:24:13.737Z,18.15
2023-04-23T15:26:40.962Z,17.94
2023-04-23T15:29:09.265Z,18.22
2023-04-23T15:31:37.861Z,18.16
2023-04-23T15:34:07.600Z,18.25
2023-04-23T15:36:35.843Z,17.83
2023-04-23T15:39:03.204Z,17.83
2023-04-23T15:41:30.342Z,18.12
2023-04-23T15:43:57.497Z,18.22
2023-04-23T15:46:27.426Z,18.48
2023-04-23T15:48:54.459Z,18.38
2023-04-23T15:51:21.863Z,18.54
2023-04-23T15:53:48.959Z,18.44
2023-04-23T15:56:18.775Z,18.81
2023-04-23T15:58:54.934Z,19.19
2023-04-23T16:01:23.304Z,19.50
2023-04-23T16:04:07.981Z,20.02
2023-04-23T16:06:35.739Z,20.58
2023-04-23T16:09:11.692Z,20.86
2023-04-23T16:11:48.065Z,21.27
2023-04-23T16:14:15.516Z,21.75
2023-04-23T16:16:42.585Z,22.23
2023-04-23T16:19:19.139Z,22.68
2023-04-23T16:21:46.184Z,23.55
2023-04-23T16:24:17.430Z,23.97
2023-04-23T16:26:52.180Z,24.21
2023-04-23T16:29:22.764Z,24.62
2023-04-23T16:31:50.872Z,25.25
2023-04-23T16:34:18.326Z,25.53
2023-04-23T16:36:45.578Z,26.32
2023-04-23T16:39:12.832Z,26.63
2023-04-23T16:41:39.980Z,27.19
2023-04-23T16:44:07.239Z,27.79
2023-04-23T16:46:34.445Z,28.02
2023-04-23T16:49:01.656Z,28.57
2023-04-23T16:51:29.912Z,28.86
2023-04-23T16:53:57.198Z,29.31
2023-04-23T16:56:24.522Z,29.92
2023-04-23T16:58:51.773Z,30.49
2023-04-23T17:01:21.581Z,30.55
2023-04-23T17:03:48.916Z,30.49
2023-04-23T17:06:32.193Z,30.53
2023-04-23T17:09:08.840Z,30.87
2023-04-23T17:11:38.273Z,31.56
2023-04-23T17:14:06.626Z,31.93
2023-04-23T17:16:33.684Z,32.80
2023-04-23T17:19:03.797Z,34.14
2023-04-23T17:21:32.075Z,34.66
2023-04-23T17:23:59.223Z,35.02
2023-04-23T17:26:26.705Z,35.47
2023-04-23T17:28:53.731Z,35.71
2023-04-23T17:31:21.725Z,36.04
2023-04-23T17:33:50.585Z,36.68
2023-04-23T17:36:17.882Z,37.29
2023-04-23T17:38:45.293Z,37.65
2023-04-23T17:41:13.203Z,37.98
2023-04-23T17:43:40.191Z,38.43
2023-04-23T17:46:07.444Z,39.09
2023-04-23T17:48:37.173Z,39.57
2023-04-23T17:51:04.504Z,40.07
2023-04-23T17:53:32.279Z,40.50
2023-04-23T17:56:03.123Z,40.75
2023-04-23T17:58:30.813Z,41.05
2023-04-23T18:00:58.194Z,41.31
2023-04-23T18:03:26.825Z,41.56
2023-04-23T18:05:54.316Z,42.05
2023-04-23T18:08:21.680Z,42.39
2023-04-23T18:10:49.701Z,42.59
2023-04-23T18:13:18.528Z,42.67
2023-04-23T18:15:50.414Z,42.85
2023-04-23T18:18:18.522Z,43.07
2023-04-23T18:20:46.431Z,43.20
2023-04-23T18:23:14.517Z,43.47
2023-04-23T18:25:42.219Z,43.55
2023-04-23T18:28:09.584Z,44.10
2023-04-23T18:30:40.069Z,44.56
2023-04-23T18:33:29.598Z,44.61
2023-04-23T18:36:01.534Z,44.65
2023-04-23T18:38:39.376Z,44.99
2023-04-23T18:41:06.424Z,45.04
2023-04-23T18:43:34.490Z,45.24
2023-04-23T18:46:02.305Z,45.50
2023-04-23T18:48:35.762Z,46.03
2023-04-23T18:51:13.564Z,46.40
2023-04-23T18:53:41.742Z,46.75
2023-04-23T18:56:09.497Z,46.60
2023-04-23T18:58:36.648Z,46.83
2023-04-23T19:01:03.710Z,46.92
2023-04-23T19:03:31.585Z,47.09
2023-04-23T19:05:59.735Z,47.29
2023-04-23T19:08:29.039Z,47.60
2023-04-23T19:10:56.616Z,47.78
2023-04-23T19:13:23.640Z,47.90
2023-04-23T19:15:50.860Z,48.29
2023-04-23T19:18:18.258Z,48.25
2023-04-23T19:20:45.508Z,48.43
2023-04-23T19:23:12.555Z,48.67
2023-04-23T19:25:40.451Z,48.82
2023-04-23T19:28:07.567Z,48.87
2023-04-23T19:30:35.050Z,48.94
2023-04-23T19:33:02.635Z,48.94
2023-04-23T19:35:30.781Z,48.95
2023-04-23T19:37:57.708Z,49.07
2023-04-23T19:40:26.809Z,49.05
2023-04-23T19:42:54.365Z,49.03
2023-04-23T19:45:22.230Z,49.14
2023-04-23T19:47:49.407Z,49.45
2023-04-23T19:50:16.936Z,49.39
2023-04-23T19:52:43.882Z,49.76
2023-04-23T19:55:10.826Z,49.96
2023-04-23T19:57:37.873Z,50.15
2023-04-23T20:00:12.578Z,50.12
2023-04-23T20:02:40.481Z,50.62
2023-04-23T20:05:10.503Z,51.05
2023-04-23T20:07:38.400Z,51.43
2023-04-23T20:10:07.245Z,51.66
2023-04-23T20:12:34.912Z,52.29
2023-04-23T20:15:02.391Z,52.64
2023-04-23T20:17:31.061Z,52.77
2023-04-23T20:20:02.072Z,52.74
2023-04-23T20:22:29.890Z,52.73
2023-04-23T20:24:58.610Z,52.98
2023-04-23T20:27:26.513Z,52.92
2023-04-23T20:29:53.869Z,53.02
2023-04-23T20:32:20.981Z,52.95
2023-04-23T20:36:59.060Z,53.26
2023-04-23T20:39:26.098Z,53.52
2023-04-23T20:41:55.080Z,53.88
2023-04-23T20:44:22.805Z,54.20
2023-04-23T20:46:52.305Z,54.10
2023-04-23T20:49:19.407Z,54.35
2023-04-23T20:51:46.962Z,54.68
2023-04-23T20:54:14.007Z,54.74
2023-04-23T20:56:41.058Z,55.13
2023-04-23T20:59:08.005Z,55.18
2023-04-23T21:01:35.296Z,55.27
2023-04-23T21:04:02.483Z,55.33
2023-04-23T21:06:31.548Z,55.49
2023-04-23T21:08:58.768Z,55.60
2023-04-23T21:11:26.283Z,55.76
2023-04-23T21:13:53.454Z,55.86
2023-04-23T21:16:20.658Z,56.01
2023-04-23T21:18:47.758Z,55.97
2023-04-23T21:21:14.709Z,56.08
2023-04-23T21:23:41.731Z,56.06
2023-04-23T21:26:08.839Z,56.02
2023-04-23T21:28:36.820Z,55.88
2023-04-23T21:31:14.414Z,56.04
2023-04-23T21:33:41.707Z,56.20
2023-04-23T21:36:08.652Z,56.32
2023-04-23T21:38:35.803Z,56.50
2023-04-23T21:41:02.849Z,56.63
2023-04-23T21:43:30.105Z,56.74
2023-04-23T21:45:57.020Z,56.88
2023-04-23T21:48:25.576Z,57.08
2023-04-23T21:50:53.908Z,57.09
2023-04-23T21:53:22.865Z,57.23
2023-04-23T21:55:49.920Z,57.42
2023-04-23T21:58:17.964Z,57.62
2023-04-23T22:00:46.151Z,57.67
2023-04-23T22:03:14.666Z,57.78
2023-04-23T22:05:47.412Z,58.12
2023-04-23T22:08:16.819Z,58.17
2023-04-23T22:10:43.866Z,58.35
2023-04-23T22:13:14.305Z,58.51
2023-04-23T22:15:41.502Z,58.70
2023-04-23T22:18:08.838Z,58.67
2023-04-23T22:20:37.893Z,58.80
2023-04-23T22:23:04.841Z,58.89
2023-04-23T22:25:31.790Z,59.03
2023-04-23T22:27:58.935Z,59.23
2023-04-23T22:30:26.019Z,59.66
2023-04-23T22:32:53.113Z,59.98
2023-04-23T22:35:20.709Z,60.11
2023-04-23T22:37:47.698Z,60.11
2023-04-23T22:40:14.742Z,60.12
2023-04-23T22:42:41.797Z,60.21
2023-04-23T22:45:09.051Z,60.29
2023-04-23T22:47:36.474Z,60.70
2023-04-23T22:50:04.330Z,61.12
2023-04-23T22:52:31.891Z,61.62
2023-04-23T22:54:58.950Z,62.30
2023-04-23T22:57:28.264Z,62.85
2023-04-23T22:59:55.980Z,63.71
2023-04-23T23:02:23.361Z,64.56
2023-04-23T23:04:51.149Z,65.19
2023-04-23T23:07:18.116Z,65.63
2023-04-23T23:09:46.386Z,65.91
2023-04-23T23:12:15.853Z,66.05
2023-04-23T23:14:43.423Z,66.05
2023-04-23T23:17:12.513Z,66.25
2023-04-23T23:19:39.530Z,66.57
2023-04-23T23:22:06.734Z,66.96
2023-04-23T23:24:34.972Z,67.07
2023-04-23T23:27:02.861Z,67.03
2023-04-23T23:29:31.974Z,66.89
2023-04-23T23:32:00.152Z,66.99
2023-04-23T23:34:28.075Z,66.85
2023-04-23T23:36:55.143Z,67.03
2023-04-23T23:39:22.285Z,67.10
2023-04-23T23:41:51.573Z,67.08
2023-04-23T23:44:18.522Z,67.45
2023-04-23T23:46:45.741Z,67.56
2023-04-23T23:49:14.683Z,67.97
2023-04-23T23:51:41.725Z,68.28
2023-04-23T23:54:08.723Z,68.57
2023-04-23T23:56:36.187Z,68.75
2023-04-23T23:59:03.123Z,69.05
